sensor_id;sensor_type;location;lat;lon;timestamp;pressure;altitude;pressure_sealevel;temperature;humidity
75681;BME280;64294;49.176;16.626;2023-09-18T00:00:54;99344.69;;;15.45;100.00
75681;BME280;64294;49.176;16.626;2023-09-18T00:03:22;99339.03;;;15.45;100.00
75681;BME280;64294;49.176;16.626;2023-09-18T00:05:50;99340.31;;;15.52;100.00
75681;BME280;64294;49.176;16.626;2023-09-18T00:08:17;99339.59;;;15.44;100.00
75681;BME280;64294;49.176;16.626;2023-09-18T00:10:46;99342.22;;;15.42;100.00
75681;BME280;64294;49.176;16.626;2023-09-18T00:13:12;99341.66;;;15.51;100.00
75681;BME280;64294;49.176;16.626;2023-09-18T00:15:38;99341.06;;;15.53;100.00
75681;BME280;64294;49.176;16.626;2023-09-18T00:18:06;99334.63;;;15.60;100.00
75681;BME280;64294;49.176;16.626;2023-09-18T00:20:31;99340.50;;;15.54;100.00
75681;BME280;64294;49.176;16.626;2023-09-18T00:22:57;99334.47;;;15.50;100.00
75681;BME280;64294;49.176;16.626;2023-09-18T00:25:22;99327.88;;;15.48;100.00
75681;BME280;64294;49.176;16.626;2023-09-18T00:27:48;99322.03;;;15.38;100.00
75681;BME280;64294;49.176;16.626;2023-09-18T00:30:14;99332.03;;;15.39;100.00
75681;BME280;64294;49.176;16.626;2023-09-18T00:32:39;99326.41;;;15.31;100.00
75681;BME280;64294;49.176;16.626;2023-09-18T00:35:05;99332.47;;;15.28;100.00
75681;BME280;64294;49.176;16.626;2023-09-18T00:37:31;99330.22;;;15.26;100.00
75681;BME280;64294;49.176;16.626;2023-09-18T00:39:56;99326.63;;;15.26;100.00
75681;BME280;64294;49.176;16.626;2023-09-18T00:42:22;99330.56;;;15.30;100.00
75681;BME280;64294;49.176;16.626;2023-09-18T00:44:48;99322.06;;;15.30;100.00
75681;BME280;64294;49.176;16.626;2023-09-18T00:47:17;99322.28;;;15.25;100.00
75681;BME280;64294;49.176;16.626;2023-09-18T00:49:47;99317.19;;;15.15;100.00
75681;BME280;64294;49.176;16.626;2023-09-18T00:52:14;99327.16;;;15.24;100.00
75681;BME280;64294;49.176;16.626;2023-09-18T00:54:40;99321.16;;;15.20;100.00
75681;BME280;64294;49.176;16.626;2023-09-18T00:57:08;99320.41;;;15.12;100.00
75681;BME280;64294;49.176;16.626;2023-09-18T00:59:34;99316.22;;;15.28;100.00
75681;BME280;64294;49.176;16.626;2023-09-18T01:02:02;99315.88;;;15.17;100.00
75681;BME280;64294;49.176;16.626;2023-09-18T01:04:31;99315.09;;;15.31;100.00
75681;BME280;64294;49.176;16.626;2023-09-18T01:07:00;99314.34;;;15.23;100.00
75681;BME280;64294;49.176;16.626;2023-09-18T01:09:31;99315.09;;;15.31;100.00
75681;BME280;64294;49.176;16.626;2023-09-18T01:14:56;99315.25;;;15.33;100.00
75681;BME280;64294;49.176;16.626;2023-09-18T01:17:22;99311.16;;;15.19;100.00
75681;BME280;64294;49.176;16.626;2023-09-18T01:19:48;99309.47;;;15.16;100.00
75681;BME280;64294;49.176;16.626;2023-09-18T01:22:21;99303.44;;;15.12;100.00
75681;BME280;64294;49.176;16.626;2023-09-18T01:24:47;99296.06;;;15.17;100.00
75681;BME280;64294;49.176;16.626;2023-09-18T01:27:15;99299.25;;;15.21;100.00
75681;BME280;64294;49.176;16.626;2023-09-18T01:29:45;99298.84;;;15.24;100.00
75681;BME280;64294;49.176;16.626;2023-09-18T01:32:10;99299.44;;;15.23;100.00
75681;BME280;64294;49.176;16.626;2023-09-18T01:34:49;99303.97;;;15.18;100.00
75681;BME280;64294;49.176;16.626;2023-09-18T01:37:18;99294.19;;;15.11;100.00
75681;BME280;64294;49.176;16.626;2023-09-18T01:39:47;99300.81;;;15.06;100.00
75681;BME280;64294;49.176;16.626;2023-09-18T01:42:13;99300.63;;;14.97;100.00
75681;BME280;64294;49.176;16.626;2023-09-18T01:44:39;99294.75;;;15.02;100.00
75681;BME280;64294;49.176;16.626;2023-09-18T01:47:08;99300.81;;;14.99;100.00
75681;BME280;64294;49.176;16.626;2023-09-18T01:49:34;99286.47;;;15.04;100.00
75681;BME280;64294;49.176;16.626;2023-09-18T01:52:01;99291.00;;;15.07;100.00
75681;BME280;64294;49.176;16.626;2023-09-18T01:54:27;99284.19;;;15.03;100.00
75681;BME280;64294;49.176;16.626;2023-09-18T01:56:52;99289.81;;;15.18;100.00
75681;BME280;64294;49.176;16.626;2023-09-18T01:59:21;99294.19;;;15.04;100.00
75681;BME280;64294;49.176;16.626;2023-09-18T02:01:47;99292.31;;;15.06;100.00
75681;BME280;64294;49.176;16.626;2023-09-18T02:04:13;99291.53;;;15.06;100.00
75681;BME280;64294;49.176;16.626;2023-09-18T02:06:38;99295.69;;;15.05;100.00
75681;BME280;64294;49.176;16.626;2023-09-18T02:09:05;99287.03;;;15.03;100.00
75681;BME280;64294;49.176;16.626;2023-09-18T02:11:30;99291.38;;;15.04;100.00
75681;BME280;64294;49.176;16.626;2023-09-18T02:13:55;99287.59;;;15.09;100.00
75681;BME280;64294;49.176;16.626;2023-09-18T02:16:24;99284.03;;;15.08;100.00
75681;BME280;64294;49.176;16.626;2023-09-18T02:18:54;99282.13;;;15.11;100.00
75681;BME280;64294;49.176;16.626;2023-09-18T02:21:21;99283.78;;;15.22;100.00
75681;BME280;64294;49.176;16.626;2023-09-18T02:23:50;99279.44;;;15.21;100.00
75681;BME280;64294;49.176;16.626;2023-09-18T02:26:19;99280.38;;;15.23;100.00
75681;BME280;64294;49.176;16.626;2023-09-18T02:28:45;99276.22;;;15.24;100.00
75681;BME280;64294;49.176;16.626;2023-09-18T02:31:13;99281.34;;;15.18;100.00
75681;BME280;64294;49.176;16.626;2023-09-18T02:33:40;99282.47;;;15.15;100.00
75681;BME280;64294;49.176;16.626;2023-09-18T02:36:06;99281.91;;;15.17;100.00
75681;BME280;64294;49.176;16.626;2023-09-18T02:38:33;99277.00;;;15.17;100.00
75681;BME280;64294;49.176;16.626;2023-09-18T02:40:59;99271.69;;;15.29;100.00
75681;BME280;64294;49.176;16.626;2023-09-18T02:43:25;99266.22;;;15.23;100.00
75681;BME280;64294;49.176;16.626;2023-09-18T02:45:51;99274.53;;;15.21;100.00
75681;BME280;64294;49.176;16.626;2023-09-18T02:48:19;99276.47;;;15.11;100.00
75681;BME280;64294;49.176;16.626;2023-09-18T02:50:49;99263.63;;;15.10;100.00
75681;BME280;64294;49.176;16.626;2023-09-18T02:53:23;99271.72;;;15.06;100.00
75681;BME280;64294;49.176;16.626;2023-09-18T02:55:50;99274.56;;;15.06;100.00
75681;BME280;64294;49.176;16.626;2023-09-18T02:58:15;99265.13;;;15.03;100.00
75681;BME280;64294;49.176;16.626;2023-09-18T03:00:49;99272.50;;;14.99;100.00
75681;BME280;64294;49.176;16.626;2023-09-18T03:03:15;99267.47;;;14.90;100.00
75681;BME280;64294;49.176;16.626;2023-09-18T03:05:43;99263.47;;;14.85;100.00
75681;BME280;64294;49.176;16.626;2023-09-18T03:08:11;99260.09;;;14.79;100.00
75681;BME280;64294;49.176;16.626;2023-09-18T03:10:41;99250.69;;;14.76;100.00
75681;BME280;64294;49.176;16.626;2023-09-18T03:13:08;99252.16;;;14.85;100.00
75681;BME280;64294;49.176;16.626;2023-09-18T03:15:34;99244.28;;;14.76;100.00
75681;BME280;64294;49.176;16.626;2023-09-18T03:18:01;99240.84;;;14.85;100.00
75681;BME280;64294;49.176;16.626;2023-09-18T03:20:28;99242.38;;;14.78;100.00
75681;BME280;64294;49.176;16.626;2023-09-18T03:22:55;99241.06;;;14.64;100.00
75681;BME280;64294;49.176;16.626;2023-09-18T03:25:22;99238.63;;;14.61;100.00
75681;BME280;64294;49.176;16.626;2023-09-18T03:27:50;99237.50;;;14.64;100.00
75681;BME280;64294;49.176;16.626;2023-09-18T03:30:16;99239.38;;;14.61;100.00
75681;BME280;64294;49.176;16.626;2023-09-18T03:32:45;99239.97;;;14.60;100.00
75681;BME280;64294;49.176;16.626;2023-09-18T03:35:11;99233.38;;;14.57;100.00
75681;BME280;64294;49.176;16.626;2023-09-18T03:37:52;99236.19;;;14.57;100.00
75681;BME280;64294;49.176;16.626;2023-09-18T03:40:21;99221.31;;;14.57;100.00
75681;BME280;64294;49.176;16.626;2023-09-18T03:42:47;99224.69;;;14.63;100.00
75681;BME280;64294;49.176;16.626;2023-09-18T03:45:12;99219.97;;;14.58;100.00
75681;BME280;64294;49.176;16.626;2023-09-18T03:47:39;99218.09;;;14.52;100.00
75681;BME280;64294;49.176;16.626;2023-09-18T03:50:08;99210.38;;;14.53;100.00
75681;BME280;64294;49.176;16.626;2023-09-18T03:52:38;99210.38;;;14.45;100.00
75681;BME280;64294;49.176;16.626;2023-09-18T03:55:04;99198.66;;;14.49;100.00
75681;BME280;64294;49.176;16.626;2023-09-18T03:57:30;99205.81;;;14.42;100.00
75681;BME280;64294;49.176;16.626;2023-09-18T03:59:56;99190.75;;;14.47;100.00
75681;BME280;64294;49.176;16.626;2023-09-18T04:02:23;99204.31;;;14.41;100.00
75681;BME280;64294;49.176;16.626;2023-09-18T04:04:49;99194.91;;;14.39;100.00
75681;BME280;64294;49.176;16.626;2023-09-18T04:07:14;99202.06;;;14.40;100.00
75681;BME280;64294;49.176;16.626;2023-09-18T04:09:42;99201.31;;;14.47;100.00
75681;BME280;64294;49.176;16.626;2023-09-18T04:12:10;99201.88;;;14.38;100.00
75681;BME280;64294;49.176;16.626;2023-09-18T04:14:35;99193.78;;;14.34;100.00
75681;BME280;64294;49.176;16.626;2023-09-18T04:17:01;99188.69;;;14.33;100.00
75681;BME280;64294;49.176;16.626;2023-09-18T04:19:27;99187.56;;;14.36;100.00
75681;BME280;64294;49.176;16.626;2023-09-18T04:21:52;99185.09;;;14.47;100.00
75681;BME280;64294;49.176;16.626;2023-09-18T04:24:18;99187.56;;;14.36;100.00
75681;BME280;64294;49.176;16.626;2023-09-18T04:26:43;99177.94;;;14.39;100.00
75681;BME280;64294;49.176;16.626;2023-09-18T04:29:09;99176.44;;;14.30;100.00
75681;BME280;64294;49.176;16.626;2023-09-18T04:31:34;99178.31;;;14.43;100.00
75681;BME280;64294;49.176;16.626;2023-09-18T04:34:00;99172.66;;;14.43;100.00
75681;BME280;64294;49.176;16.626;2023-09-18T04:36:25;99177.00;;;14.44;100.00
75681;BME280;64294;49.176;16.626;2023-09-18T04:38:51;99176.78;;;14.42;100.00
75681;BME280;64294;49.176;16.626;2023-09-18T04:41:16;99170.38;;;14.41;100.00
75681;BME280;64294;49.176;16.626;2023-09-18T04:43:42;99172.47;;;14.56;100.00
75681;BME280;64294;49.176;16.626;2023-09-18T04:46:10;99174.34;;;14.61;100.00
75681;BME280;64294;49.176;16.626;2023-09-18T04:48:36;99173.94;;;14.72;100.00
75681;BME280;64294;49.176;16.626;2023-09-18T04:51:03;99177.13;;;14.76;100.00
75681;BME280;64294;49.176;16.626;2023-09-18T04:53:29;99171.06;;;14.88;100.00
75681;BME280;64294;49.176;16.626;2023-09-18T04:55:55;99172.72;;;14.98;100.00
75681;BME280;64294;49.176;16.626;2023-09-18T04:58:21;99165.31;;;15.10;100.00
75681;BME280;64294;49.176;16.626;2023-09-18T05:00:52;99166.19;;;15.21;100.00
75681;BME280;64294;49.176;16.626;2023-09-18T05:03:18;99162.19;;;15.31;100.00
75681;BME280;64294;49.176;16.626;2023-09-18T05:05:44;99162.47;;;15.51;100.00
75681;BME280;64294;49.176;16.626;2023-09-18T05:08:09;99164.59;;;15.75;100.00
75681;BME280;64294;49.176;16.626;2023-09-18T05:10:35;99169.53;;;15.99;100.00
75681;BME280;64294;49.176;16.626;2023-09-18T05:13:00;99161.91;;;16.27;100.00
75681;BME280;64294;49.176;16.626;2023-09-18T05:15:27;99164.09;;;16.53;100.00
75681;BME280;64294;49.176;16.626;2023-09-18T05:17:56;99162.97;;;16.74;100.00
75681;BME280;64294;49.176;16.626;2023-09-18T05:20:24;99163.63;;;16.99;100.00
75681;BME280;64294;49.176;16.626;2023-09-18T05:22:51;99165.41;;;17.21;100.00
75681;BME280;64294;49.176;16.626;2023-09-18T05:25:21;99160.81;;;17.53;100.00
75681;BME280;64294;49.176;16.626;2023-09-18T05:27:50;99158.56;;;17.78;100.00
75681;BME280;64294;49.176;16.626;2023-09-18T05:32:54;99164.69;;;18.21;100.00
75681;BME280;64294;49.176;16.626;2023-09-18T05:35:19;99163.09;;;18.28;100.00
75681;BME280;64294;49.176;16.626;2023-09-18T05:37:49;99168.13;;;18.66;100.00
75681;BME280;64294;49.176;16.626;2023-09-18T05:40:18;99164.84;;;18.79;100.00
75681;BME280;64294;49.176;16.626;2023-09-18T05:42:43;99170.06;;;19.02;100.00
75681;BME280;64294;49.176;16.626;2023-09-18T05:45:11;99168.22;;;19.26;100.00
75681;BME280;64294;49.176;16.626;2023-09-18T05:47:39;99170.75;;;19.60;99.75
75681;BME280;64294;49.176;16.626;2023-09-18T05:50:06;99171.69;;;19.94;98.97
75681;BME280;64294;49.176;16.626;2023-09-18T05:52:33;99162.38;;;19.93;97.85
75681;BME280;64294;49.176;16.626;2023-09-18T05:55:00;99156.94;;;19.98;97.36
75681;BME280;64294;49.176;16.626;2023-09-18T05:57:26;99152.84;;;19.70;99.44
75681;BME280;64294;49.176;16.626;2023-09-18T05:59:55;99152.19;;;19.90;98.02
75681;BME280;64294;49.176;16.626;2023-09-18T06:02:23;99154.00;;;20.38;95.98
75681;BME280;64294;49.176;16.626;2023-09-18T06:05:00;99162.66;;;20.93;93.59
75681;BME280;64294;49.176;16.626;2023-09-18T06:07:27;99154.78;;;21.48;89.36
75681;BME280;64294;49.176;16.626;2023-09-18T06:09:52;99163.81;;;22.00;85.84
75681;BME280;64294;49.176;16.626;2023-09-18T06:12:18;99159.09;;;22.77;82.32
75681;BME280;64294;49.176;16.626;2023-09-18T06:14:44;99156.16;;;23.01;81.07
75681;BME280;64294;49.176;16.626;2023-09-18T06:17:10;99157.13;;;23.56;78.94
75681;BME280;64294;49.176;16.626;2023-09-18T06:19:35;99151.09;;;24.30;74.99
75681;BME280;64294;49.176;16.626;2023-09-18T06:22:01;99144.16;;;25.35;68.92
75681;BME280;64294;49.176;16.626;2023-09-18T06:24:26;99153.81;;;25.42;66.71
75681;BME280;64294;49.176;16.626;2023-09-18T06:26:53;99144.84;;;25.65;65.09
75681;BME280;64294;49.176;16.626;2023-09-18T06:29:21;99151.00;;;24.42;68.66
75681;BME280;64294;49.176;16.626;2023-09-18T06:31:47;99147.69;;;25.04;66.80
75681;BME280;64294;49.176;16.626;2023-09-18T06:34:12;99143.63;;;26.34;61.77
75681;BME280;64294;49.176;16.626;2023-09-18T06:36:39;99139.03;;;25.95;62.49
75681;BME280;64294;49.176;16.626;2023-09-18T06:39:06;99134.34;;;26.19;61.77
75681;BME280;64294;49.176;16.626;2023-09-18T06:41:31;99131.63;;;26.73;59.28
75681;BME280;64294;49.176;16.626;2023-09-18T06:43:57;99129.47;;;27.07;58.85
75681;BME280;64294;49.176;16.626;2023-09-18T06:46:23;99121.31;;;27.94;54.12
75681;BME280;64294;49.176;16.626;2023-09-18T06:48:49;99115.16;;;28.04;54.25
75681;BME280;64294;49.176;16.626;2023-09-18T06:51:16;99111.78;;;28.93;49.88
75681;BME280;64294;49.176;16.626;2023-09-18T06:53:43;99099.69;;;27.38;54.55
75681;BME280;64294;49.176;16.626;2023-09-18T06:56:09;99115.81;;;26.07;59.74
75681;BME280;64294;49.176;16.626;2023-09-18T06:58:34;99111.47;;;26.39;59.28
75681;BME280;64294;49.176;16.626;2023-09-18T07:01:00;99116.94;;;28.13;52.52
75681;BME280;64294;49.176;16.626;2023-09-18T07:03:25;99115.16;;;29.07;48.70
75681;BME280;64294;49.176;16.626;2023-09-18T07:05:54;99103.31;;;31.02;45.30
75681;BME280;64294;49.176;16.626;2023-09-18T07:08:19;99103.75;;;30.09;46.29
75681;BME280;64294;49.176;16.626;2023-09-18T07:10:50;99094.75;;;30.51;45.58
75681;BME280;64294;49.176;16.626;2023-09-18T07:13:15;99094.31;;;31.84;42.21
75681;BME280;64294;49.176;16.626;2023-09-18T07:15:42;99090.25;;;28.98;49.18
75681;BME280;64294;49.176;16.626;2023-09-18T07:18:10;99079.34;;;28.97;49.45
75681;BME280;64294;49.176;16.626;2023-09-18T07:20:40;99081.69;;;29.48;48.16
75681;BME280;64294;49.176;16.626;2023-09-18T07:23:05;99072.06;;;30.69;44.80
75681;BME280;64294;49.176;16.626;2023-09-18T07:25:31;99071.56;;;32.49;41.08
75681;BME280;64294;49.176;16.626;2023-09-18T07:27:59;99083.25;;;32.13;41.28
75681;BME280;64294;49.176;16.626;2023-09-18T07:30:26;99081.47;;;33.20;39.50
75681;BME280;64294;49.176;16.626;2023-09-18T07:32:55;99075.75;;;30.45;44.51
75681;BME280;64294;49.176;16.626;2023-09-18T07:35:25;99091.44;;;30.90;44.03
75681;BME280;64294;49.176;16.626;2023-09-18T07:37:51;99080.63;;;32.27;41.35
75681;BME280;64294;49.176;16.626;2023-09-18T07:40:17;99083.09;;;28.57;49.67
75681;BME280;64294;49.176;16.626;2023-09-18T07:42:42;99081.63;;;28.56;49.20
75681;BME280;64294;49.176;16.626;2023-09-18T07:45:11;99083.88;;;29.02;48.94
75681;BME280;64294;49.176;16.626;2023-09-18T07:47:37;99079.47;;;30.76;45.16
75681;BME280;64294;49.176;16.626;2023-09-18T07:50:07;99080.19;;;32.43;41.10
75681;BME280;64294;49.176;16.626;2023-09-18T07:52:33;99085.50;;;33.45;39.11
75681;BME280;64294;49.176;16.626;2023-09-18T07:54:59;99078.66;;;29.20;47.33
75681;BME280;64294;49.176;16.626;2023-09-18T07:57:25;99070.59;;;30.14;45.66
75681;BME280;64294;49.176;16.626;2023-09-18T07:59:53;99084.19;;;31.87;42.40
75681;BME280;64294;49.176;16.626;2023-09-18T08:02:19;99072.22;;;31.71;41.97
75681;BME280;64294;49.176;16.626;2023-09-18T08:04:46;99072.47;;;32.58;40.99
75681;BME280;64294;49.176;16.626;2023-09-18T08:07:12;99081.44;;;33.66;37.66
75681;BME280;64294;49.176;16.626;2023-09-18T08:09:37;99075.22;;;32.11;41.05
75681;BME280;64294;49.176;16.626;2023-09-18T08:12:04;99071.69;;;32.97;39.78
75681;BME280;64294;49.176;16.626;2023-09-18T08:14:30;99071.16;;;34.22;37.81
75681;BME280;64294;49.176;16.626;2023-09-18T08:16:59;99083.44;;;34.10;37.43
75681;BME280;64294;49.176;16.626;2023-09-18T08:19:26;99068.50;;;33.84;37.91
75681;BME280;64294;49.176;16.626;2023-09-18T08:21:53;99061.66;;;34.19;37.90
75681;BME280;64294;49.176;16.626;2023-09-18T08:24:19;99060.81;;;33.02;39.07
75681;BME280;64294;49.176;16.626;2023-09-18T08:26:44;99065.44;;;32.73;39.40
75681;BME280;64294;49.176;16.626;2023-09-18T08:29:10;99066.69;;;32.21;40.74
75681;BME280;64294;49.176;16.626;2023-09-18T08:31:35;99060.44;;;31.63;42.58
75681;BME280;64294;49.176;16.626;2023-09-18T08:34:00;99062.19;;;30.26;45.35
75681;BME280;64294;49.176;16.626;2023-09-18T08:36:26;99059.75;;;32.01;41.63
75681;BME280;64294;49.176;16.626;2023-09-18T08:38:54;99071.00;;;32.18;40.49
75681;BME280;64294;49.176;16.626;2023-09-18T08:41:20;99062.28;;;31.80;41.55
75681;BME280;64294;49.176;16.626;2023-09-18T08:43:50;99061.91;;;31.30;42.37
75681;BME280;64294;49.176;16.626;2023-09-18T08:46:18;99057.06;;;31.75;41.97
75681;BME280;64294;49.176;16.626;2023-09-18T08:48:44;99051.75;;;31.99;41.15
75681;BME280;64294;49.176;16.626;2023-09-18T08:51:11;99045.88;;;33.80;38.58
75681;BME280;64294;49.176;16.626;2023-09-18T08:53:36;99049.81;;;33.47;37.86
75681;BME280;64294;49.176;16.626;2023-09-18T08:56:03;99055.66;;;33.47;37.78
75681;BME280;64294;49.176;16.626;2023-09-18T08:58:40;99037.13;;;35.40;34.54
75681;BME280;64294;49.176;16.626;2023-09-18T09:01:09;99032.50;;;35.04;35.17
75681;BME280;64294;49.176;16.626;2023-09-18T09:03:42;99031.16;;;33.66;36.85
75681;BME280;64294;49.176;16.626;2023-09-18T09:06:08;99035.25;;;32.52;39.31
75681;BME280;64294;49.176;16.626;2023-09-18T09:08:34;99047.66;;;34.06;37.46
75681;BME280;64294;49.176;16.626;2023-09-18T09:11:01;99036.41;;;33.25;37.79
75681;BME280;64294;49.176;16.626;2023-09-18T09:13:26;99028.72;;;32.51;40.35
75681;BME280;64294;49.176;16.626;2023-09-18T09:15:53;99018.53;;;32.52;40.24
75681;BME280;64294;49.176;16.626;2023-09-18T09:18:21;99017.19;;;33.04;39.06
75681;BME280;64294;49.176;16.626;2023-09-18T09:21:01;99015.88;;;31.50;41.71
75681;BME280;64294;49.176;16.626;2023-09-18T09:23:51;99012.19;;;32.64;39.56
75681;BME280;64294;49.176;16.626;2023-09-18T09:26:20;99009.25;;;32.62;39.46
75681;BME280;64294;49.176;16.626;2023-09-18T09:28:48;99009.66;;;32.87;39.25
75681;BME280;64294;49.176;16.626;2023-09-18T09:31:28;99015.13;;;32.66;39.99
75681;BME280;64294;49.176;16.626;2023-09-18T09:33:56;99013.34;;;32.45;40.29
75681;BME280;64294;49.176;16.626;2023-09-18T09:36:23;99010.03;;;33.67;38.75
75681;BME280;64294;49.176;16.626;2023-09-18T09:38:54;99013.41;;;31.37;41.36
75681;BME280;64294;49.176;16.626;2023-09-18T09:41:20;99011.59;;;29.51;47.51
75681;BME280;64294;49.176;16.626;2023-09-18T09:43:46;98994.72;;;32.62;40.82
75681;BME280;64294;49.176;16.626;2023-09-18T09:46:16;98990.22;;;33.54;38.87
75681;BME280;64294;49.176;16.626;2023-09-18T09:49:06;99010.25;;;32.35;40.42
75681;BME280;64294;49.176;16.626;2023-09-18T09:51:33;98990.31;;;33.64;38.37
75681;BME280;64294;49.176;16.626;2023-09-18T09:53:59;98979.53;;;35.83;35.11
75681;BME280;64294;49.176;16.626;2023-09-18T09:59:06;99009.63;;;33.33;39.70
75681;BME280;64294;49.176;16.626;2023-09-18T10:01:37;98990.28;;;30.77;43.52
75681;BME280;64294;49.176;16.626;2023-09-18T10:04:14;98988.63;;;31.31;43.36
75681;BME280;64294;49.176;16.626;2023-09-18T10:06:51;99002.78;;;29.73;45.26
75681;BME280;64294;49.176;16.626;2023-09-18T10:09:19;98982.41;;;29.69;47.24
75681;BME280;64294;49.176;16.626;2023-09-18T10:11:45;98992.41;;;30.74;44.52
75681;BME280;64294;49.176;16.626;2023-09-18T10:14:19;98978.59;;;29.89;47.24
75681;BME280;64294;49.176;16.626;2023-09-18T10:16:49;98985.97;;;29.42;48.80
75681;BME280;64294;49.176;16.626;2023-09-18T10:19:34;98967.63;;;29.57;47.37
75681;BME280;64294;49.176;16.626;2023-09-18T10:22:20;98975.03;;;27.04;54.20
75681;BME280;64294;49.176;16.626;2023-09-18T10:24:54;98994.31;;;27.57;53.88
75681;BME280;64294;49.176;16.626;2023-09-18T10:27:20;98964.38;;;27.08;56.94
75681;BME280;64294;49.176;16.626;2023-09-18T10:29:49;98975.66;;;27.80;54.77
75681;BME280;64294;49.176;16.626;2023-09-18T10:32:21;98970.91;;;27.49;55.62
75681;BME280;64294;49.176;16.626;2023-09-18T10:34:47;98960.19;;;29.26;49.87
75681;BME280;64294;49.176;16.626;2023-09-18T10:37:14;98960.28;;;29.04;49.28
75681;BME280;64294;49.176;16.626;2023-09-18T10:39:41;98968.19;;;27.53;54.33
75681;BME280;64294;49.176;16.626;2023-09-18T10:42:11;98971.69;;;26.38;60.24
75681;BME280;64294;49.176;16.626;2023-09-18T10:44:43;98964.41;;;26.19;59.42
75681;BME280;64294;49.176;16.626;2023-09-18T10:47:10;98967.88;;;26.34;59.98
75681;BME280;64294;49.176;16.626;2023-09-18T10:49:37;98952.19;;;27.50;55.85
75681;BME280;64294;49.176;16.626;2023-09-18T10:52:03;98944.34;;;30.67;46.69
75681;BME280;64294;49.176;16.626;2023-09-18T10:54:30;98945.97;;;29.60;48.03
75681;BME280;64294;49.176;16.626;2023-09-18T10:56:56;98945.69;;;28.54;52.02
75681;BME280;64294;49.176;16.626;2023-09-18T10:59:23;98956.47;;;27.88;54.26
75681;BME280;64294;49.176;16.626;2023-09-18T11:01:49;98945.94;;;29.58;49.57
75681;BME280;64294;49.176;16.626;2023-09-18T11:04:18;98957.41;;;28.82;50.93
75681;BME280;64294;49.176;16.626;2023-09-18T11:09:29;98933.78;;;29.14;50.08
75681;BME280;64294;49.176;16.626;2023-09-18T11:14:41;98937.09;;;28.13;53.89
75681;BME280;64294;49.176;16.626;2023-09-18T11:17:40;98925.41;;;27.67;55.31
75681;BME280;64294;49.176;16.626;2023-09-18T11:20:07;98930.19;;;30.81;45.17
75681;BME280;64294;49.176;16.626;2023-09-18T11:28:23;98905.56;;;28.21;53.16
75681;BME280;64294;49.176;16.626;2023-09-18T11:30:53;98901.53;;;28.76;51.08
75681;BME280;64294;49.176;16.626;2023-09-18T11:33:34;98898.88;;;29.34;50.24
75681;BME280;64294;49.176;16.626;2023-09-18T11:36:12;98893.94;;;28.41;51.90
75681;BME280;64294;49.176;16.626;2023-09-18T11:38:53;98890.53;;;27.19;55.43
75681;BME280;64294;49.176;16.626;2023-09-18T11:41:27;98926.44;;;26.41;57.76
75681;BME280;64294;49.176;16.626;2023-09-18T11:46:39;98896.91;;;26.98;56.10
75681;BME280;64294;49.176;16.626;2023-09-18T11:49:07;98921.94;;;27.11;55.22
75681;BME280;64294;49.176;16.626;2023-09-18T11:51:35;98896.84;;;26.58;57.37
75681;BME280;64294;49.176;16.626;2023-09-18T11:54:03;98894.97;;;26.47;58.21
75681;BME280;64294;49.176;16.626;2023-09-18T11:56:29;98887.19;;;27.07;56.16
75681;BME280;64294;49.176;16.626;2023-09-18T11:58:55;98892.94;;;27.07;56.43
75681;BME280;64294;49.176;16.626;2023-09-18T12:01:23;98889.38;;;27.68;55.22
75681;BME280;64294;49.176;16.626;2023-09-18T12:03:55;98890.13;;;27.29;55.54
75681;BME280;64294;49.176;16.626;2023-09-18T12:06:25;98895.34;;;26.95;56.73
75681;BME280;64294;49.176;16.626;2023-09-18T12:08:53;98883.19;;;27.36;55.28
75681;BME280;64294;49.176;16.626;2023-09-18T12:11:19;98876.09;;;28.02;53.26
75681;BME280;64294;49.176;16.626;2023-09-18T12:13:47;98878.91;;;27.79;52.99
75681;BME280;64294;49.176;16.626;2023-09-18T12:16:13;98874.22;;;28.33;51.08
75681;BME280;64294;49.176;16.626;2023-09-18T12:18:45;98868.50;;;27.50;53.69
75681;BME280;64294;49.176;16.626;2023-09-18T12:21:13;98878.22;;;27.80;52.02
75681;BME280;64294;49.176;16.626;2023-09-18T12:23:40;98842.22;;;28.75;50.89
75681;BME280;64294;49.176;16.626;2023-09-18T12:26:06;98844.94;;;28.69;50.88
75681;BME280;64294;49.176;16.626;2023-09-18T12:28:35;98851.19;;;27.50;53.00
75681;BME280;64294;49.176;16.626;2023-09-18T12:31:04;98847.03;;;27.74;52.36
75681;BME280;64294;49.176;16.626;2023-09-18T12:33:36;98848.66;;;28.47;50.59
75681;BME280;64294;49.176;16.626;2023-09-18T12:36:06;98855.38;;;28.80;48.87
75681;BME280;64294;49.176;16.626;2023-09-18T12:38:34;98872.06;;;28.57;49.26
75681;BME280;64294;49.176;16.626;2023-09-18T12:41:01;98844.81;;;28.64;48.61
75681;BME280;64294;49.176;16.626;2023-09-18T12:43:44;98861.44;;;27.96;50.92
75681;BME280;64294;49.176;16.626;2023-09-18T12:46:11;98840.16;;;27.64;52.53
75681;BME280;64294;49.176;16.626;2023-09-18T12:48:40;98843.78;;;27.64;52.99
75681;BME280;64294;49.176;16.626;2023-09-18T12:51:10;98848.88;;;27.66;53.08
75681;BME280;64294;49.176;16.626;2023-09-18T12:53:36;98837.31;;;27.88;52.18
75681;BME280;64294;49.176;16.626;2023-09-18T12:58:34;98826.59;;;27.90;52.01
75681;BME280;64294;49.176;16.626;2023-09-18T13:01:05;98835.00;;;27.82;52.49
75681;BME280;64294;49.176;16.626;2023-09-18T13:03:45;98832.38;;;27.49;53.13
75681;BME280;64294;49.176;16.626;2023-09-18T13:06:16;98811.50;;;27.28;53.22
75681;BME280;64294;49.176;16.626;2023-09-18T13:08:49;98799.88;;;28.35;51.22
75681;BME280;64294;49.176;16.626;2023-09-18T13:11:15;98805.53;;;28.31;49.88
75681;BME280;64294;49.176;16.626;2023-09-18T13:13:42;98812.41;;;27.98;50.54